Terminal Aerodrome Forecast
Issued by NWS Bismarck, ND

Home | Current Version | Previous Version | Text Only | Print | Product List | Glossary Off
Versions: 1 2 3 4 5 6 7 8 9 10 11 12 13 14 15 16 17 18 19

000
FTUS43 KBIS 230528
TAFISN
TAF
KISN 230528Z 2306/2406 33018G28KT P6SM BKN020 OVC030
     FM231100 31015G25KT P6SM FEW015 SCT070
     FM231800 31022G31KT P6SM FEW050 FEW110
     FM240200 32013KT P6SM FEW060 SCT120
     FM240400 33009KT P6SM SCT120=

USA.gov is the U.S. government's official web portal to all federal, state and local government web resources and services.